Time;durP1;ratioP1;P1;durP2;ratioP2;P2;SDS_P1;SDS_P2;PMS_P1;PMS_P2;Temp;Humidity;BMP_temperature;BMP_pressure;BME280_temperature;BME280_humidity;BME280_pressure;Samples;Min_cycle;Max_cycle;Signal;HPM_P1;HPM_P2
2021/12/17 00:01:10;;;;;;;18.60;9.82;;;;;;;4.86;66.27;100820.44;5089242;28;20036;-20
2021/12/17 00:03:50;;;;;;;19.30;10.25;;;;;;;4.90;66.03;100819.94;5089205;28;20126;-21
2021/12/17 00:08:50;;;;;;;17.63;9.77;;;;;;;4.80;65.87;100809.56;5089547;28;20044;-20
2021/12/17 00:11:15;;;;;;;16.45;9.25;;;;;;;4.59;66.21;100793.31;5089319;28;20032;-20
2021/12/17 00:13:42;;;;;;;17.85;9.27;;;;;;;4.51;66.37;100802.03;5089297;28;20457;-21
2021/12/17 00:16:15;;;;;;;17.70;9.20;;;;;;;4.60;66.54;100810.84;5089253;28;20069;-21
2021/12/17 00:18:56;;;;;;;16.20;9.02;;;;;;;4.81;66.66;100800.63;5089206;28;20028;-21
2021/12/17 00:43:59;;;;;;;19.25;10.10;;;;;;;4.83;67.51;100819.78;5089135;28;20109;-21
2021/12/17 00:48:47;;;;;;;16.33;9.73;;;;;;;4.96;67.92;100826.41;5087975;28;20549;-20
2021/12/17 00:54:03;;;;;;;17.60;10.55;;;;;;;4.91;69.37;100820.78;5088677;28;20054;-21
2021/12/17 00:56:28;;;;;;;18.90;10.07;;;;;;;4.93;69.14;100813.53;5054076;28;20124;-20
2021/12/17 00:58:54;;;;;;;24.98;16.95;;;;;;;5.15;67.54;100798.81;5088684;28;20258;-21
2021/12/17 01:01:20;;;;;;;17.02;9.88;;;;;;;5.00;67.50;100814.50;5088244;28;20027;-20
2021/12/17 01:03:46;;;;;;;19.38;11.18;;;;;;;5.09;68.67;100813.53;5088483;28;20832;-20
2021/12/17 01:06:11;;;;;;;19.02;11.05;;;;;;;5.13;69.59;100808.72;5088393;28;20043;-21
2021/12/17 01:08:36;;;;;;;20.52;11.32;;;;;;;4.94;67.84;100801.94;5088584;28;20020;-21
2021/12/17 01:11:02;;;;;;;17.65;10.75;;;;;;;4.71;68.60;100783.25;5088530;28;20503;-20
2021/12/17 01:13:28;;;;;;;20.58;12.20;;;;;;;4.76;68.59;100808.22;5088096;28;20032;-21
2021/12/17 01:15:54;;;;;;;21.40;12.07;;;;;;;4.93;68.39;100805.59;5070117;28;20051;-21
2021/12/17 01:18:21;;;;;;;20.23;11.38;;;;;;;5.05;66.05;100801.66;5088529;28;20027;-20
2021/12/17 01:21:21;;;;;;;23.60;12.02;;;;;;;4.90;68.09;100804.09;5088766;28;20781;-20
2021/12/17 01:36:40;;;;;;;21.90;12.50;;;;;;;4.56;69.35;100775.97;5072753;28;20039;-20
2021/12/17 01:42:06;;;;;;;21.05;12.07;;;;;;;4.48;69.71;100793.63;5088241;28;20536;-20
2021/12/17 01:44:36;;;;;;;22.08;12.35;;;;;;;4.62;70.53;100787.72;5087957;28;20810;-21
2021/12/17 01:47:01;;;;;;;19.75;11.38;;;;;;;4.68;68.76;100767.72;5070042;28;20028;-20
2021/12/17 02:00:07;;;;;;;20.33;12.38;;;;;;;4.64;69.47;100751.41;5089461;28;20118;-20
2021/12/17 02:02:40;;;;;;;21.60;11.32;;;;;;;5.02;68.71;100791.38;5092116;28;20043;-21
2021/12/17 02:05:06;;;;;;;20.83;10.98;;;;;;;4.91;68.73;100775.88;5073825;28;20115;-20
2021/12/17 02:07:31;;;;;;;20.02;11.60;;;;;;;4.83;69.96;100784.59;5091527;28;20096;-20
2021/12/17 02:28:59;;;;;;;21.63;11.90;;;;;;;4.62;70.61;100753.38;5091153;28;20067;-20
2021/12/17 02:33:54;;;;;;;;;;;;;;;4.77;71.03;100759.66;5092015;28;20399;-21
2021/12/17 02:36:24;;;;;;;20.73;11.23;;;;;;;4.80;70.16;100759.34;5091451;28;19918;-20
2021/12/17 02:38:50;;;;;;;19.75;10.93;;;;;;;4.73;69.50;100750.41;5091328;28;20847;-20
2021/12/17 02:46:44;;;;;;;18.85;10.52;;;;;;;4.73;68.83;100755.69;5091182;28;20059;-21
2021/12/17 02:49:09;;;;;;;18.45;9.70;;;;;;;4.63;68.48;100755.00;5091263;28;20415;-20
2021/12/17 02:51:35;;;;;;;17.42;9.77;;;;;;;4.54;69.63;100748.09;5090799;28;20053;-20
2021/12/17 02:54:00;;;;;;;17.33;9.88;;;;;;;4.64;67.75;100751.41;5090986;28;20093;-20
2021/12/17 02:56:27;;;;;;;21.50;10.93;;;;;;;4.50;68.56;100750.22;5091113;28;20035;-20
2021/12/17 02:58:55;;;;;;;18.00;10.05;;;;;;;4.37;68.64;100744.56;5090922;28;20111;-29
2021/12/17 03:01:21;;;;;;;18.60;10.25;;;;;;;4.51;68.37;100751.03;5073037;28;20105;-20
2021/12/17 03:03:48;;;;;;;19.70;8.85;;;;;;;4.25;68.21;100712.38;5090593;28;20476;-20
2021/12/17 03:06:14;;;;;;;16.40;9.07;;;;;;;4.27;68.67;100744.72;5072823;28;20035;-21
2021/12/17 03:08:40;;;;;;;18.75;9.77;;;;;;;4.38;68.45;100725.09;5072395;28;20278;-20
2021/12/17 03:11:05;;;;;;;17.85;8.88;;;;;;;4.47;68.27;100757.63;5071792;28;20060;-20
2021/12/17 03:13:34;;;;;;;16.92;8.20;;;;;;;4.34;68.66;100760.75;5090400;28;20040;-21
2021/12/17 03:16:10;;;;;;;;;;;;;;;4.35;68.34;100757.94;5090939;28;20034;-21
2021/12/17 03:24:04;;;;;;;17.88;9.32;;;;;;;4.05;70.74;100754.03;5090628;28;20078;-21
2021/12/17 03:26:30;;;;;;;17.98;10.50;;;;;;;3.85;70.79;100729.72;5090535;28;20036;-20
2021/12/17 03:29:04;;;;;;;20.13;10.68;;;;;;;3.98;71.53;100745.94;5090018;28;20098;-20
2021/12/17 03:31:30;;;;;;;17.77;9.73;;;;;;;3.80;70.92;100714.38;5090096;28;20158;-21
2021/12/17 03:34:04;;;;;;;19.20;10.05;;;;;;;3.79;71.52;100735.63;5090363;28;20138;-20
2021/12/17 03:36:29;;;;;;;17.27;8.85;;;;;;;3.76;71.70;100759.66;5090108;28;20090;-21
2021/12/17 03:38:55;;;;;;;19.38;9.88;;;;;;;3.81;71.67;100752.94;5089918;28;20063;-21
2021/12/17 03:41:24;;;;;;;17.67;9.45;;;;;;;3.81;71.71;100741.56;5071772;28;20035;-20
2021/12/17 03:43:50;;;;;;;21.65;10.88;;;;;;;3.95;71.76;100748.88;5089575;28;20032;-20
2021/12/17 03:46:16;;;;;;;16.10;8.98;;;;;;;3.89;71.49;100736.31;5089669;28;20709;-20
2021/12/17 03:48:42;;;;;;;18.10;9.68;;;;;;;4.07;70.56;100736.25;5089763;28;20115;-20
2021/12/17 03:51:13;;;;;;;15.88;9.77;;;;;;;4.09;70.99;100738.72;5089722;28;20028;-20
2021/12/17 03:53:40;;;;;;;21.00;10.48;;;;;;;4.09;69.24;100736.91;5089823;28;20138;-20
2021/12/17 03:56:06;;;;;;;18.27;9.98;;;;;;;3.97;70.05;100709.16;5089553;28;20069;-20
2021/12/17 03:58:32;;;;;;;16.77;9.05;;;;;;;4.29;69.18;100734.81;5089575;28;20036;-20
2021/12/17 04:00:57;;;;;;;16.08;9.45;;;;;;;4.28;68.48;100751.63;5071422;28;20063;-20
2021/12/17 04:03:22;;;;;;;18.25;9.65;;;;;;;4.32;68.62;100737.13;5089524;28;20032;-21
2021/12/17 04:05:48;;;;;;;15.20;9.52;;;;;;;4.31;68.73;100739.91;5089225;28;20036;-20
2021/12/17 04:08:14;;;;;;;15.52;8.57;;;;;;;4.08;68.33;100702.75;5089392;28;20032;-20
2021/12/17 04:10:43;;;;;;;15.40;8.65;;;;;;;4.12;68.93;100719.91;5089242;28;20090;-20
2021/12/17 04:13:30;;;;;;;16.27;9.77;;;;;;;4.07;68.93;100724.88;5089197;28;20025;-20
2021/12/17 04:16:02;;;;;;;15.55;8.50;;;;;;;4.10;68.87;100706.03;5089451;28;20055;-20
2021/12/17 04:18:28;;;;;;;17.63;8.50;;;;;;;4.09;68.94;100720.25;5089036;28;20059;-20
2021/12/17 04:20:54;;;;;;;16.65;9.10;;;;;;;4.26;68.92;100716.66;5070152;28;20062;-20
2021/12/17 04:23:20;;;;;;;18.65;9.25;;;;;;;4.31;68.40;100713.50;5089339;28;20039;-20
2021/12/17 04:25:47;;;;;;;15.00;8.38;;;;;;;4.27;67.94;100723.59;5088742;28;20035;-20
2021/12/17 04:28:13;;;;;;;16.73;7.90;;;;;;;4.31;68.49;100727.56;5088930;28;20411;-20
2021/12/17 04:30:39;;;;;;;15.00;8.10;;;;;;;4.66;68.54;100733.56;5089177;28;20020;-20
2021/12/17 04:33:04;;;;;;;13.50;8.15;;;;;;;4.56;67.26;100711.75;5089131;28;20043;-20
2021/12/17 04:35:30;;;;;;;14.90;8.27;;;;;;;4.61;67.60;100735.84;5089075;28;20091;-20
2021/12/17 04:37:56;;;;;;;13.25;7.53;;;;;;;4.61;66.82;100730.56;5088742;28;20040;-20
2021/12/17 04:40:24;;;;;;;15.20;8.73;;;;;;;4.68;67.18;100736.88;5088802;28;20032;-21
2021/12/17 04:45:28;;;;;;;12.57;8.00;;;;;;;4.53;67.87;100707.59;5088529;28;20015;-20
2021/12/17 04:58:50;;;;;;;11.65;6.72;;;;;;;4.32;68.24;100716.00;5088706;28;20181;-20
2021/12/17 05:01:16;;;;;;;14.13;7.25;;;;;;;4.33;67.92;100693.91;5088611;28;20468;-20
2021/12/17 05:03:42;;;;;;;11.63;7.20;;;;;;;4.40;67.75;100718.66;5088305;28;20036;-20
2021/12/17 05:06:07;;;;;;;11.02;6.47;;;;;;;4.47;68.99;100713.53;5088325;28;20039;-21
2021/12/17 05:08:33;;;;;;;14.13;7.43;;;;;;;4.45;68.21;100704.13;5088589;28;20502;-20
2021/12/17 05:21:35;;;;;;;13.80;7.65;;;;;;;4.74;67.58;100715.06;5088232;28;20039;-20
2021/12/17 05:24:01;;;;;;;9.73;5.65;;;;;;;4.64;66.60;100714.41;5088280;28;20039;-20
2021/12/17 05:26:26;;;;;;;13.30;7.57;;;;;;;4.71;66.89;100706.66;5088192;28;20403;-20
2021/12/17 05:28:52;;;;;;;13.05;7.22;;;;;;;4.78;66.51;100702.34;5087941;28;20060;-20
2021/12/17 05:31:21;;;;;;;13.02;7.53;;;;;;;4.74;66.88;100708.94;5087950;28;20042;-20
2021/12/17 05:33:50;;;;;;;10.55;6.38;;;;;;;4.74;65.96;100714.22;5087629;28;20042;-20
2021/12/17 05:36:15;;;;;;;13.02;6.97;;;;;;;4.76;67.40;100726.31;5087769;28;20026;-20
2021/12/17 05:38:41;;;;;;;10.90;6.45;;;;;;;4.76;67.85;100718.38;5088542;28;20388;-20
2021/12/17 05:41:06;;;;;;;13.20;6.32;;;;;;;4.51;66.19;100698.19;5087698;28;20778;-20
2021/12/17 05:43:36;;;;;;;12.55;6.80;;;;;;;4.67;66.87;100692.94;5087903;28;20047;-20
2021/12/17 05:46:08;;;;;;;11.20;6.78;;;;;;;4.69;66.68;100701.50;5070419;28;20032;-20
2021/12/17 05:48:33;;;;;;;11.05;6.30;;;;;;;4.71;67.22;100701.34;5071025;28;20023;-20
2021/12/17 05:51:00;;;;;;;12.65;6.85;;;;;;;4.80;66.27;100698.56;5087951;28;20032;-20
2021/12/17 05:53:26;;;;;;;11.10;5.85;;;;;;;4.66;65.87;100686.00;5088001;28;20106;-20
2021/12/17 05:55:52;;;;;;;12.50;6.78;;;;;;;4.65;65.95;100673.78;5087845;28;20032;-20
2021/12/17 05:58:18;;;;;;;12.23;6.35;;;;;;;4.74;66.75;100696.56;5087887;28;20036;-20
2021/12/17 06:00:44;;;;;;;12.65;6.15;;;;;;;4.66;65.68;100674.59;5087729;28;20492;-20
2021/12/17 06:03:09;;;;;;;11.23;6.65;;;;;;;4.78;66.48;100689.97;5088093;28;20449;-20
2021/12/17 06:05:35;;;;;;;12.77;6.50;;;;;;;4.76;66.52;100685.81;5087568;28;20037;-20
2021/12/17 06:08:00;;;;;;;12.65;6.75;;;;;;;4.72;65.87;100682.72;5087816;28;20115;-20
2021/12/17 06:10:26;;;;;;;11.85;6.60;;;;;;;4.62;66.32;100674.13;5087825;28;20111;-21
2021/12/17 06:12:51;;;;;;;10.77;6.28;;;;;;;4.76;66.53;100689.31;5069411;28;20062;-20
2021/12/17 06:15:18;;;;;;;12.50;6.13;;;;;;;4.72;66.43;100681.84;5087813;28;20403;-20
2021/12/17 06:17:44;;;;;;;12.50;7.22;;;;;;;4.65;67.21;100673.78;5087695;28;20530;-20
2021/12/17 06:20:10;;;;;;;13.45;6.68;;;;;;;4.76;65.83;100676.09;5087853;28;20028;-20
2021/12/17 06:22:36;;;;;;;11.43;6.15;;;;;;;4.76;65.98;100681.38;5087505;28;20151;-20
2021/12/17 06:25:06;;;;;;;12.27;5.97;;;;;;;4.83;66.27;100679.72;5087540;28;20119;-20
2021/12/17 06:27:31;;;;;;;11.00;6.28;;;;;;;4.81;66.17;100672.94;5069570;28;20040;-20
2021/12/17 06:29:57;;;;;;;11.35;6.60;;;;;;;4.89;66.00;100674.78;5087779;28;20527;-20
2021/12/17 06:32:23;;;;;;;8.55;5.40;;;;;;;4.94;65.34;100677.72;5087580;28;20032;-20
2021/12/17 06:34:48;;;;;;;11.15;7.28;;;;;;;5.07;65.41;100680.69;5087447;28;20032;-21
2021/12/17 06:37:15;;;;;;;11.93;6.07;;;;;;;5.10;64.90;100685.63;5087603;28;20039;-20
2021/12/17 06:39:41;;;;;;;13.13;6.57;;;;;;;5.02;65.15;100681.16;5087254;28;20028;-20
2021/12/17 06:42:06;;;;;;;14.27;7.55;;;;;;;4.99;64.61;100676.25;5087588;28;20416;-21
2021/12/17 06:44:32;;;;;;;13.13;7.10;;;;;;;4.92;65.36;100679.72;5087863;28;20047;-19
2021/12/17 06:49:50;;;;;;;11.85;6.45;;;;;;;5.02;65.42;100690.94;5091110;28;20043;-20
2021/12/17 07:10:44;;;;;;;12.02;6.47;;;;;;;5.43;63.74;100710.22;5090698;28;20036;-20
2021/12/17 07:34:15;;;;;;;13.85;7.18;;;;;;;5.42;66.18;100690.03;5075212;28;20743;-19
2021/12/17 07:38:36;;;;;;;10.27;6.47;;;;;;;5.13;65.84;100671.25;5090343;28;20035;-20
2021/12/17 07:39:41;;;;;;;13.63;7.00;;;;;;;5.29;67.20;100675.69;5089748;28;20074;-20
2021/12/17 07:42:07;;;;;;;12.98;7.38;;;;;;;5.56;66.22;100683.22;5089902;28;20065;-20
2021/12/17 07:44:32;;;;;;;12.13;6.70;;;;;;;5.49;66.58;100692.81;5090014;28;20039;-21
2021/12/17 07:46:58;;;;;;;11.82;6.35;;;;;;;5.34;66.28;100694.53;5090328;28;20081;-20
2021/12/17 07:49:23;;;;;;;11.85;6.45;;;;;;;5.20;66.24;100657.19;5089818;28;20051;-22
2021/12/17 07:51:49;;;;;;;12.85;7.20;;;;;;;5.36;66.42;100677.47;5090071;28;20040;-20
2021/12/17 07:54:15;;;;;;;11.98;6.30;;;;;;;5.28;66.77;100658.19;5089930;28;20040;-20
2021/12/17 07:56:40;;;;;;;12.38;7.38;;;;;;;5.43;66.69;100669.69;5089602;28;20035;-20
2021/12/17 07:59:10;;;;;;;10.95;6.25;;;;;;;5.34;66.35;100652.22;5089155;28;20049;-22
2021/12/17 08:01:36;;;;;;;11.50;6.47;;;;;;;5.44;67.11;100648.34;5089305;28;20065;-20
2021/12/17 08:04:05;;;;;;;12.07;6.80;;;;;;;5.52;66.21;100639.56;5089618;28;20028;-20
2021/12/17 08:06:31;;;;;;;11.82;6.40;;;;;;;5.51;66.59;100643.19;5089587;28;20028;-20
2021/12/17 08:08:56;;;;;;;10.98;6.13;;;;;;;5.71;66.29;100640.16;5089421;28;20024;-20
2021/12/17 08:11:22;;;;;;;13.90;7.18;;;;;;;5.65;66.82;100641.66;5089285;28;20564;-20
2021/12/17 08:13:49;;;;;;;13.95;8.02;;;;;;;5.93;66.69;100657.09;5089188;28;20032;-25
2021/12/17 08:16:28;;;;;;;12.40;6.68;;;;;;;6.01;65.11;100652.59;5089544;28;20034;-22
2021/12/17 08:31:48;;;;;;;11.27;6.25;;;;;;;6.17;64.57;100648.19;5089232;28;20028;-20
2021/12/17 08:34:14;;;;;;;20.73;10.40;;;;;;;6.26;64.96;100631.25;5088876;28;20038;-20
2021/12/17 08:36:39;;;;;;;12.43;6.60;;;;;;;6.20;64.72;100638.06;5089005;28;20036;-20
2021/12/17 08:39:05;;;;;;;10.60;6.28;;;;;;;6.37;65.20;100649.38;5088715;28;20085;-20
2021/12/17 08:41:30;;;;;;;12.98;6.90;;;;;;;6.31;65.34;100639.47;5088732;28;20510;-20
2021/12/17 08:43:56;;;;;;;11.25;6.25;;;;;;;6.39;66.62;100636.75;5088969;28;20039;-21
2021/12/17 08:46:21;;;;;;;14.80;7.18;;;;;;;6.45;65.69;100640.53;5088944;28;20419;-20
2021/12/17 08:48:46;;;;;;;12.43;6.53;;;;;;;6.84;63.52;100619.19;5070907;28;20024;-20
2021/12/17 08:51:12;;;;;;;9.82;5.95;;;;;;;6.70;64.33;100642.97;5088619;28;20028;-20
2021/12/17 08:53:37;;;;;;;9.50;5.13;;;;;;;6.51;64.65;100623.94;5088355;28;20411;-21
2021/12/17 08:56:04;;;;;;;9.50;5.63;;;;;;;6.39;65.24;100604.97;5088585;28;20112;-20
2021/12/17 08:58:29;;;;;;;10.80;6.13;;;;;;;6.58;65.11;100616.94;5088618;28;20036;-20
2021/12/17 09:00:55;;;;;;;10.57;5.88;;;;;;;6.75;64.84;100625.53;5088646;28;20027;-20
2021/12/17 09:03:20;;;;;;;10.68;5.47;;;;;;;6.88;64.85;100624.91;5088315;28;20446;-20
2021/12/17 09:05:46;;;;;;;9.23;5.22;;;;;;;7.15;63.68;100614.69;5087970;28;20408;-19
2021/12/17 09:08:12;;;;;;;10.48;5.70;;;;;;;7.29;63.69;100621.81;5088347;28;20063;-20
2021/12/17 09:10:37;;;;;;;10.95;5.32;;;;;;;7.18;61.87;100583.34;5087586;28;20081;-20
2021/12/17 09:13:03;;;;;;;10.55;4.57;;;;;;;7.04;62.59;100592.94;5088176;28;20036;-20
2021/12/17 09:15:29;;;;;;;7.88;4.32;;;;;;;6.98;63.24;100571.63;5088038;28;20036;-20
2021/12/17 09:17:54;;;;;;;8.30;3.80;;;;;;;6.93;62.89;100579.31;5088407;28;20028;-21
2021/12/17 09:20:20;;;;;;;8.60;3.60;;;;;;;7.04;63.54;100584.97;5088609;28;20035;-20
2021/12/17 09:22:45;;;;;;;10.55;5.07;;;;;;;7.16;63.29;100572.06;5088314;28;20051;-20
2021/12/17 09:25:11;;;;;;;8.55;4.80;;;;;;;7.39;63.62;100568.50;5088134;28;20412;-20
2021/12/17 09:27:36;;;;;;;7.95;3.28;;;;;;;7.27;62.44;100551.41;5087670;28;20476;-20
2021/12/17 09:30:06;;;;;;;8.45;4.20;;;;;;;7.39;63.17;100557.88;5087769;28;20056;-20
2021/12/17 09:32:33;;;;;;;8.38;3.97;;;;;;;7.46;62.73;100550.81;5087741;28;20048;-20
2021/12/17 09:34:59;;;;;;;6.30;3.50;;;;;;;7.62;62.56;100563.03;5087808;28;20103;-20
2021/12/17 09:37:24;;;;;;;8.77;4.00;;;;;;;7.31;62.77;100544.72;5087481;28;20411;-19
2021/12/17 09:39:49;;;;;;;7.05;3.60;;;;;;;7.39;63.21;100542.75;5087614;28;20028;-19
2021/12/17 09:42:15;;;;;;;8.73;4.32;;;;;;;7.31;63.20;100550.03;5069054;28;20097;-20
2021/12/17 09:44:41;;;;;;;7.68;4.32;;;;;;;7.35;61.87;100538.84;5087517;28;20044;-20
2021/12/17 09:47:07;;;;;;;8.52;3.97;;;;;;;7.35;62.57;100530.06;5087538;28;20036;-20
2021/12/17 09:49:32;;;;;;;6.53;3.25;;;;;;;7.29;62.09;100514.88;5087412;28;20770;-20
2021/12/17 09:51:59;;;;;;;5.93;2.97;;;;;;;7.21;62.28;100523.78;5087632;28;20040;-20
2021/12/17 09:54:25;;;;;;;4.45;2.35;;;;;;;7.14;62.49;100517.59;5087667;28;20028;-20
2021/12/17 09:56:50;;;;;;;5.82;2.97;;;;;;;7.11;62.67;100516.13;5087580;28;20055;-21
2021/12/17 09:59:15;;;;;;;5.57;2.70;;;;;;;7.08;63.94;100519.13;5087581;28;20023;-20
2021/12/17 10:01:42;;;;;;;5.22;2.72;;;;;;;7.04;64.06;100501.94;5087338;28;20039;-20
2021/12/17 10:04:28;;;;;;;5.28;2.75;;;;;;;7.12;64.97;100501.84;5069196;28;20032;-20
2021/12/17 10:07:19;;;;;;;8.55;2.83;;;;;;;7.07;64.80;100501.59;5087466;28;20032;-22
2021/12/17 10:10:16;;;;;;;7.25;3.15;;;;;;;7.07;65.05;100495.44;5086914;28;20376;-20
2021/12/17 10:12:41;;;;;;;7.13;3.72;;;;;;;6.98;65.32;100482.28;5074280;28;20423;-20
2021/12/17 10:15:11;;;;;;;7.80;3.58;;;;;;;7.00;65.82;100500.66;5087451;28;20028;-20
2021/12/17 10:17:49;;;;;;;9.48;4.82;;;;;;;7.03;66.68;100479.91;5087030;28;20032;-20
2021/12/17 10:20:14;;;;;;;9.70;4.03;;;;;;;7.12;65.04;100471.84;5071422;28;20035;-21
2021/12/17 10:22:42;;;;;;;6.95;3.83;;;;;;;7.11;65.12;100476.34;5091388;28;20043;-20
2021/12/17 10:25:09;;;;;;;6.32;2.85;;;;;;;7.17;64.79;100475.59;5056371;28;20051;-20
2021/12/17 10:27:39;;;;;;;10.30;5.80;;;;;;;7.18;64.47;100456.00;5056021;28;20864;-20
2021/12/17 10:30:19;;;;;;;6.43;3.22;;;;;;;7.15;64.17;100466.16;5091725;28;20048;-20
2021/12/17 10:32:46;;;;;;;6.70;3.35;;;;;;;7.12;64.23;100448.81;5091216;28;20028;-21
2021/12/17 10:35:20;;;;;;;9.75;5.68;;;;;;;7.46;64.50;100457.94;5091116;28;20028;-20
2021/12/17 10:37:55;;;;;;;9.70;5.63;;;;;;;7.35;64.78;100471.69;5090834;28;20103;-20
2021/12/17 10:40:26;;;;;;;7.55;3.67;;;;;;;7.17;64.86;100470.28;5090980;28;20052;-20
2021/12/17 10:43:03;;;;;;;8.23;4.20;;;;;;;7.22;66.65;100462.59;5091028;28;20889;-20
2021/12/17 10:45:31;;;;;;;9.18;4.68;;;;;;;7.13;66.05;100458.41;5073713;28;20039;-20
2021/12/17 10:48:21;;;;;;;7.60;4.30;;;;;;;7.20;66.37;100437.25;5056390;28;20021;-20
2021/12/17 10:50:48;;;;;;;9.27;5.40;;;;;;;7.78;65.13;100434.53;5090730;28;20490;-20
2021/12/17 10:53:14;;;;;;;8.48;4.60;;;;;;;7.97;65.10;100439.22;5090982;28;20036;-20
2021/12/17 10:55:41;;;;;;;6.13;3.35;;;;;;;7.61;65.00;100440.13;5090403;28;20032;-21
2021/12/17 10:58:09;;;;;;;6.65;3.80;;;;;;;7.38;65.83;100439.50;5056233;28;20032;-20
2021/12/17 11:00:50;;;;;;;8.45;5.20;;;;;;;7.76;65.63;100425.94;5090877;28;20101;-20
2021/12/17 11:03:16;;;;;;;10.35;6.20;;;;;;;7.82;66.52;100414.56;5074248;28;20465;-20
2021/12/17 11:05:41;;;;;;;8.60;4.55;;;;;;;8.24;63.45;100418.97;5072301;28;20032;-20
2021/12/17 11:08:28;;;;;;;7.93;3.90;;;;;;;7.59;65.00;100404.97;5090694;28;20020;-20
2021/12/17 11:10:58;;;;;;;7.47;4.07;;;;;;;7.77;66.07;100417.00;5072904;28;20027;-20
2021/12/17 11:13:25;;;;;;;5.97;3.55;;;;;;;7.51;65.89;100417.56;5090385;28;20064;-21
2021/12/17 11:15:51;;;;;;;7.57;4.43;;;;;;;7.52;66.71;100406.78;5072410;28;20035;-21
2021/12/17 11:18:17;;;;;;;6.75;3.75;;;;;;;7.73;65.14;100378.56;5090446;28;20024;-20
2021/12/17 11:20:43;;;;;;;8.90;4.80;;;;;;;7.70;66.16;100405.47;5090612;28;20036;-20
2021/12/17 11:23:12;;;;;;;9.07;4.93;;;;;;;7.73;64.90;100407.75;5090191;28;20032;-20
2021/12/17 11:25:39;;;;;;;8.95;5.35;;;;;;;7.30;66.02;100362.69;5090234;28;20032;-20
2021/12/17 11:28:07;;;;;;;6.63;4.70;;;;;;;7.82;65.53;100372.06;5090011;28;20868;-20
2021/12/17 11:30:33;;;;;;;10.20;7.13;;;;;;;7.95;65.48;100397.94;5090130;28;20047;-20
2021/12/17 11:33:04;;;;;;;7.97;4.88;;;;;;;8.57;64.01;100359.06;5089528;28;20044;-20
2021/12/17 11:35:30;;;;;;;10.57;7.18;;;;;;;8.39;63.86;100397.56;5089823;28;20070;-20
2021/12/17 11:38:00;;;;;;;12.70;4.60;;;;;;;8.31;63.66;100380.97;5089911;28;20034;-20
2021/12/17 11:40:27;;;;;;;7.85;5.10;;;;;;;7.84;63.83;100343.50;5055452;28;20028;-20
2021/12/17 11:43:20;;;;;;;10.02;5.70;;;;;;;8.48;63.69;100355.75;5071757;28;20036;-20
2021/12/17 11:45:56;;;;;;;8.82;4.45;;;;;;;8.74;61.94;100376.28;5089543;28;20092;-20
2021/12/17 11:48:23;;;;;;;6.80;4.07;;;;;;;8.04;62.88;100355.06;5090020;28;20121;-20
2021/12/17 11:51:07;;;;;;;8.73;5.10;;;;;;;8.11;63.60;100359.59;5089879;28;20056;-20
2021/12/17 11:53:32;;;;;;;6.15;3.13;;;;;;;7.96;63.13;100357.06;5089348;28;20028;-20
2021/12/17 11:56:00;;;;;;;6.65;4.15;;;;;;;8.24;63.18;100349.06;5054893;28;20028;-20
2021/12/17 11:58:42;;;;;;;5.53;3.20;;;;;;;8.39;63.17;100356.91;5089630;28;20063;-20
2021/12/17 12:01:08;;;;;;;9.07;4.15;;;;;;;8.41;62.46;100342.41;5089664;28;20098;-20
2021/12/17 12:03:33;;;;;;;8.25;4.10;;;;;;;7.94;63.46;100341.31;5071376;28;20121;-20
2021/12/17 12:06:00;;;;;;;7.25;3.97;;;;;;;7.84;63.44;100328.38;5070996;28;20035;-20
2021/12/17 12:08:27;;;;;;;7.97;4.47;;;;;;;7.85;63.79;100323.91;5071443;28;20108;-20
2021/12/17 12:11:18;;;;;;;7.03;4.40;;;;;;;7.82;63.29;100326.94;5089352;28;20063;-20
2021/12/17 12:13:50;;;;;;;7.68;4.35;;;;;;;7.80;63.62;100310.38;5071187;28;20032;-20
2021/12/17 12:16:16;;;;;;;7.45;4.45;;;;;;;7.85;63.20;100318.59;5089022;28;20024;-19
2021/12/17 12:18:49;;;;;;;6.90;4.00;;;;;;;7.79;62.92;100330.00;5071183;28;20475;-21
2021/12/17 12:21:21;;;;;;;9.10;5.75;;;;;;;7.68;62.20;100331.34;5089259;28;20115;-20
2021/12/17 12:23:57;;;;;;;8.60;4.35;;;;;;;7.63;62.43;100317.84;5088624;28;20040;-20
2021/12/17 12:26:25;;;;;;;7.22;4.30;;;;;;;7.64;62.65;100309.69;5089057;28;20032;-20
2021/12/17 12:29:05;;;;;;;13.03;6.67;;;;;;;7.68;62.80;100311.94;5067358;28;20052;-20
2021/12/17 12:31:35;;;;;;;10.07;4.38;;;;;;;7.59;63.07;100309.44;5068783;28;20056;-20
2021/12/17 12:34:01;;;;;;;13.57;6.72;;;;;;;7.58;63.17;100309.63;5068823;28;20577;-20
2021/12/17 12:36:48;;;;;;;12.18;6.43;;;;;;;7.58;63.23;100313.13;5068860;28;20029;-20
2021/12/17 12:39:14;;;;;;;21.67;10.27;;;;;;;7.58;63.63;100296.34;5068650;28;20032;-20
2021/12/17 12:41:46;;;;;;;9.18;4.72;;;;;;;7.61;63.58;100302.09;5068565;28;20082;-20
2021/12/17 12:44:11;;;;;;;15.52;8.32;;;;;;;7.81;63.14;100283.66;5067651;28;20039;-20
2021/12/17 12:47:06;;;;;;;16.23;9.57;;;;;;;7.77;63.27;100300.16;5068606;28;20036;-20
2021/12/17 12:49:44;;;;;;;43.03;22.88;;;;;;;7.70;63.55;100300.09;5054093;28;20136;-20
2021/12/17 12:52:46;;;;;;;37.58;16.23;;;;;;;7.84;63.17;100295.72;5068745;28;20032;-20
2021/12/17 12:55:23;;;;;;;18.23;8.90;;;;;;;7.85;63.15;100297.38;5058035;28;20079;-20
2021/12/17 12:58:04;;;;;;;48.10;23.43;;;;;;;7.83;62.94;100286.13;5068581;28;20040;-20
2021/12/17 13:00:30;;;;;;;25.50;12.48;;;;;;;7.77;63.04;100278.94;5068450;28;20416;-21
2021/12/17 13:02:59;;;;;;;22.67;11.13;;;;;;;7.75;63.21;100278.31;5068684;28;20036;-21
2021/12/17 13:05:24;;;;;;;;;;;;;;;7.82;63.27;100276.50;5068626;28;20043;-21
2021/12/17 13:07:54;;;;;;;16.90;10.77;;;;;;;7.72;63.54;100274.19;5068452;28;19912;-20
2021/12/17 13:10:22;;;;;;;10.68;7.53;;;;;;;7.84;62.48;100269.97;5068168;28;20024;-20
2021/12/17 13:13:22;;;;;;;9.65;6.82;;;;;;;7.89;62.98;100266.75;5067168;28;20029;-19
2021/12/17 13:24:21;;;;;;;12.48;6.38;;;;;;;8.12;62.76;100271.75;5068486;28;20041;-21
2021/12/17 13:26:49;;;;;;;11.77;6.38;;;;;;;7.99;63.30;100263.75;5067862;28;20404;-20
2021/12/17 13:29:21;;;;;;;11.82;6.68;;;;;;;7.92;64.12;100266.34;5081264;28;20060;-20
2021/12/17 13:31:53;;;;;;;9.13;6.30;;;;;;;7.97;64.26;100263.94;5087941;28;20066;-20
2021/12/17 13:34:28;;;;;;;15.05;9.40;;;;;;;8.02;63.38;100261.47;5088231;28;20601;-20
2021/12/17 13:37:06;;;;;;;13.07;8.10;;;;;;;7.90;64.44;100288.81;5088780;28;20029;-21
2021/12/17 13:39:46;;;;;;;10.27;6.50;;;;;;;7.73;64.77;100277.69;5087826;28;20515;-20
2021/12/17 13:42:21;;;;;;;9.90;5.13;;;;;;;7.70;65.51;100267.44;5071385;28;20119;-20
2021/12/17 13:44:51;;;;;;;7.43;4.38;;;;;;;7.63;65.07;100262.91;5069848;28;20487;-20
2021/12/17 13:47:16;;;;;;;9.32;6.45;;;;;;;7.77;64.93;100271.78;5087912;28;20558;-20
2021/12/17 13:49:50;;;;;;;11.88;6.22;;;;;;;7.63;64.55;100272.72;5087830;28;20028;-19
2021/12/17 13:52:16;;;;;;;6.55;4.28;;;;;;;7.44;65.68;100259.13;5071208;28;20510;-20
2021/12/17 13:54:44;;;;;;;8.23;4.80;;;;;;;7.42;65.35;100257.69;5087906;28;20038;-20
2021/12/17 13:57:14;;;;;;;5.63;3.72;;;;;;;7.47;65.45;100273.00;5091968;28;20207;-21
2021/12/17 13:59:40;;;;;;;6.70;4.30;;;;;;;7.37;65.50;100260.06;5091840;28;20028;-20
2021/12/17 14:02:12;;;;;;;7.22;4.85;;;;;;;7.32;66.46;100259.84;5074145;28;20032;-20
2021/12/17 14:04:38;;;;;;;8.93;5.10;;;;;;;7.40;66.38;100257.06;5092097;28;20036;-20
2021/12/17 14:07:05;;;;;;;7.45;4.85;;;;;;;7.21;66.40;100240.78;5057409;28;20042;-20
2021/12/17 14:09:30;;;;;;;6.32;4.03;;;;;;;7.26;66.36;100265.91;5091821;28;20028;-21
2021/12/17 14:11:58;;;;;;;7.13;4.70;;;;;;;7.04;66.80;100229.63;5092027;28;20031;-20
2021/12/17 14:14:27;;;;;;;7.85;4.75;;;;;;;7.04;67.27;100239.41;5091790;28;20032;-20
2021/12/17 14:16:57;;;;;;;8.25;5.38;;;;;;;7.13;67.09;100261.31;5091995;28;20093;-20
2021/12/17 14:19:56;;;;;;;7.72;4.47;;;;;;;7.13;67.52;100259.50;5091590;28;20040;-20
2021/12/17 14:22:29;;;;;;;13.85;7.43;;;;;;;7.23;67.58;100249.38;5040981;28;20876;-20
2021/12/17 14:24:56;;;;;;;8.68;5.38;;;;;;;7.20;67.32;100257.69;5092330;28;20419;-20
2021/12/17 14:27:21;;;;;;;7.85;4.60;;;;;;;7.27;67.07;100251.63;5091513;28;20040;-20
2021/12/17 14:29:48;;;;;;;13.27;7.50;;;;;;;7.37;66.99;100246.81;5090912;28;20488;-20
2021/12/17 14:32:20;;;;;;;7.20;4.80;;;;;;;7.35;67.14;100265.56;5073374;28;20040;-20